createdAt,value
2023-05-19T00:01:17.761Z,2.75
2023-05-19T00:03:57.832Z,3.08
2023-05-19T00:06:26.942Z,2.95
2023-05-19T00:09:00.365Z,2.80
2023-05-19T00:11:28.910Z,2.97
2023-05-19T00:13:57.658Z,3.47
2023-05-19T00:16:25.643Z,3.20
2023-05-19T00:18:53.360Z,3.03
2023-05-19T00:21:20.927Z,3.03
2023-05-19T00:23:47.486Z,2.92
2023-05-19T00:26:14.095Z,2.95
2023-05-19T00:28:40.743Z,3.17
2023-05-19T00:31:07.364Z,2.50
2023-05-19T00:33:34.253Z,2.88
2023-05-19T00:36:03.461Z,2.50
2023-05-19T00:38:34.881Z,3.10
2023-05-19T00:41:02.528Z,2.75
2023-05-19T00:43:32.630Z,2.72
2023-05-19T00:45:59.256Z,2.60
2023-05-19T00:48:26.575Z,2.47
2023-05-19T00:50:55.213Z,2.97
2023-05-19T00:53:23.286Z,2.55
2023-05-19T00:55:50.611Z,2.63
2023-05-19T00:58:18.543Z,2.40
2023-05-19T01:00:45.793Z,2.55
2023-05-19T01:03:12.632Z,2.72
2023-05-19T01:05:41.753Z,2.58
2023-05-19T01:08:09.142Z,2.83
2023-05-19T01:10:36.014Z,2.72
2023-05-19T01:13:07.074Z,3.15
2023-05-19T01:15:42.177Z,2.95
2023-05-19T01:18:14.296Z,3.38
2023-05-19T01:20:55.312Z,3.20
2023-05-19T01:23:36.757Z,2.88
2023-05-19T01:26:16.193Z,2.70
2023-05-19T01:28:54.957Z,3.08
2023-05-19T01:31:24.037Z,2.38
2023-05-19T01:33:53.752Z,3.35
2023-05-19T01:36:22.329Z,2.90
2023-05-19T01:38:52.094Z,2.97
2023-05-19T01:41:22.505Z,3.08
2023-05-19T01:43:50.761Z,3.30
2023-05-19T01:46:17.817Z,2.95
2023-05-19T01:48:45.743Z,3.17
2023-05-19T01:51:12.362Z,3.40
2023-05-19T01:53:39.058Z,2.20
2023-05-19T01:56:06.624Z,3.33
2023-05-19T01:58:47.526Z,2.80
2023-05-19T02:01:30.815Z,2.70
2023-05-19T02:04:09.687Z,2.97
2023-05-19T02:07:09.673Z,3.00
2023-05-19T02:09:54.815Z,2.78
2023-05-19T02:15:06.888Z,2.90
2023-05-19T02:17:36.696Z,2.78
2023-05-19T02:20:05.341Z,2.53
2023-05-19T02:22:31.974Z,3.00
2023-05-19T02:24:58.838Z,3.03
2023-05-19T02:27:26.378Z,3.10
2023-05-19T02:29:53.421Z,3.05
2023-05-19T02:32:20.965Z,2.80
2023-05-19T02:34:47.750Z,2.58
2023-05-19T02:37:17.815Z,3.22
2023-05-19T02:39:45.075Z,2.88
2023-05-19T02:42:12.555Z,3.10
2023-05-19T02:44:39.261Z,3.00
2023-05-19T02:47:05.952Z,3.10
2023-05-19T02:49:36.215Z,2.95
2023-05-19T02:52:03.904Z,2.70
2023-05-19T02:54:31.669Z,2.50
2023-05-19T02:57:01.281Z,2.80
2023-05-19T02:59:28.014Z,2.58
2023-05-19T03:01:56.782Z,3.13
2023-05-19T03:04:23.448Z,3.05
2023-05-19T03:06:50.334Z,2.75
2023-05-19T03:09:17.036Z,2.63
2023-05-19T03:11:43.679Z,2.80
2023-05-19T03:14:11.650Z,2.85
2023-05-19T03:16:42.289Z,2.47
2023-05-19T03:19:09.881Z,3.10
2023-05-19T03:21:39.449Z,2.70
2023-05-19T03:24:06.768Z,2.72
2023-05-19T03:26:33.496Z,2.50
2023-05-19T03:29:00.178Z,2.38
2023-05-19T03:31:26.995Z,2.70
2023-05-19T03:33:53.767Z,2.70
2023-05-19T03:36:22.147Z,2.75
2023-05-19T03:38:48.846Z,2.92
2023-05-19T03:41:15.565Z,2.78
2023-05-19T03:43:42.200Z,2.95
2023-05-19T03:46:08.835Z,2.90
2023-05-19T03:48:38.351Z,2.72
2023-05-19T03:51:05.054Z,2.85
2023-05-19T03:53:31.686Z,3.28
2023-05-19T03:55:59.544Z,2.80
2023-05-19T03:58:26.843Z,3.40
2023-05-19T04:00:53.531Z,2.70
2023-05-19T04:03:20.307Z,2.90
2023-05-19T04:05:47.065Z,2.72
2023-05-19T04:08:13.738Z,2.42
2023-05-19T04:10:40.353Z,3.25
2023-05-19T04:13:09.961Z,2.40
2023-05-19T04:15:36.659Z,2.78
2023-05-19T04:18:03.430Z,2.85
2023-05-19T04:20:30.223Z,2.42
2023-05-19T04:22:56.947Z,2.63
2023-05-19T04:25:25.376Z,2.55
2023-05-19T04:27:53.074Z,2.72
2023-05-19T04:30:22.597Z,2.65
2023-05-19T04:32:53.543Z,2.53
2023-05-19T04:35:20.788Z,2.50
2023-05-19T04:37:47.395Z,2.65
2023-05-19T04:40:17.465Z,2.53
2023-05-19T04:42:46.147Z,2.70
2023-05-19T04:45:14.130Z,2.58
2023-05-19T04:47:41.976Z,2.42
2023-05-19T04:50:10.440Z,2.88
2023-05-19T04:52:37.765Z,2.65
2023-05-19T04:55:04.788Z,2.70
2023-05-19T04:57:31.439Z,2.72
2023-05-19T05:00:00.301Z,2.67
2023-05-19T05:02:29.932Z,2.40
2023-05-19T05:04:57.855Z,2.63
2023-05-19T05:07:24.692Z,2.60
2023-05-19T05:09:51.537Z,2.85
2023-05-19T05:12:19.190Z,2.83
2023-05-19T05:14:46.125Z,2.60
2023-05-19T05:17:13.797Z,2.50
2023-05-19T05:19:41.098Z,2.42
2023-05-19T05:22:10.743Z,2.75
2023-05-19T05:24:39.745Z,2.53
2023-05-19T05:27:08.280Z,3.20
2023-05-19T05:29:38.098Z,3.15
2023-05-19T05:32:10.439Z,3.10
2023-05-19T05:34:38.181Z,2.97
2023-05-19T05:37:04.944Z,2.75
2023-05-19T05:39:32.007Z,2.70
2023-05-19T05:41:58.721Z,2.58
2023-05-19T05:44:25.430Z,3.28
2023-05-19T05:46:55.260Z,2.53
2023-05-19T05:49:23.235Z,2.78
2023-05-19T05:52:01.821Z,2.90
2023-05-19T05:54:35.306Z,2.78
2023-05-19T05:57:02.645Z,2.53
2023-05-19T05:59:29.307Z,3.10
2023-05-19T06:01:56.014Z,2.88
2023-05-19T06:04:22.717Z,2.70
2023-05-19T06:06:49.387Z,3.05
2023-05-19T06:09:16.399Z,3.28
2023-05-19T06:11:43.042Z,2.90
2023-05-19T06:14:10.369Z,2.95
2023-05-19T06:16:37.062Z,3.30
2023-05-19T06:19:03.806Z,2.88
2023-05-19T06:21:30.944Z,3.45
2023-05-19T06:23:57.642Z,2.80
2023-05-19T06:26:24.402Z,3.00
2023-05-19T06:28:51.408Z,2.58
2023-05-19T06:31:18.216Z,2.65
2023-05-19T06:33:44.821Z,3.20
2023-05-19T06:36:14.080Z,3.00
2023-05-19T06:38:40.749Z,2.92
2023-05-19T06:41:07.554Z,3.00
2023-05-19T06:43:34.173Z,2.85
2023-05-19T06:46:00.802Z,3.22
2023-05-19T06:48:27.494Z,3.00
2023-05-19T06:50:54.277Z,2.88
2023-05-19T06:53:21.473Z,3.05
2023-05-19T06:55:59.245Z,2.92
2023-05-19T06:58:27.273Z,3.50
2023-05-19T07:00:53.948Z,2.97
2023-05-19T07:03:20.663Z,3.40
2023-05-19T07:05:47.629Z,2.75
2023-05-19T07:08:14.253Z,3.13
2023-05-19T07:10:43.825Z,2.60
2023-05-19T07:13:10.485Z,3.15
2023-05-19T07:15:37.124Z,2.95
2023-05-19T07:18:03.964Z,2.75
2023-05-19T07:20:30.992Z,3.17
2023-05-19T07:22:57.956Z,3.55
2023-05-19T07:25:26.166Z,3.05
2023-05-19T07:27:53.016Z,2.97
2023-05-19T07:30:19.635Z,3.30
2023-05-19T07:32:46.295Z,3.47
2023-05-19T07:35:13.062Z,2.88
2023-05-19T07:37:39.823Z,3.13
2023-05-19T07:40:08.033Z,2.80
2023-05-19T07:42:34.802Z,3.35
2023-05-19T07:45:03.232Z,3.53
2023-05-19T07:47:30.735Z,3.05
2023-05-19T07:49:57.448Z,3.45
2023-05-19T07:52:24.075Z,3.45
2023-05-19T07:54:50.697Z,3.20
2023-05-19T07:57:19.032Z,2.90
2023-05-19T07:59:45.714Z,3.58
2023-05-19T08:02:15.574Z,3.55
2023-05-19T08:04:42.788Z,4.03
2023-05-19T08:07:09.435Z,3.22
2023-05-19T08:09:39.148Z,3.40
2023-05-19T08:12:06.289Z,3.67
2023-05-19T08:14:37.574Z,3.40
2023-05-19T08:17:04.255Z,3.38
2023-05-19T08:19:30.935Z,3.83
2023-05-19T08:21:58.297Z,3.78
2023-05-19T08:24:24.980Z,3.10
2023-05-19T08:26:51.704Z,3.17
2023-05-19T08:29:18.360Z,3.50
2023-05-19T08:31:45.004Z,3.33
2023-05-19T08:34:11.874Z,3.67
2023-05-19T08:36:39.057Z,3.80
2023-05-19T08:39:06.043Z,3.25
2023-05-19T08:41:33.087Z,3.08
2023-05-19T08:44:02.091Z,2.92
2023-05-19T08:46:29.371Z,3.08
2023-05-19T08:49:02.149Z,3.00
2023-05-19T08:51:50.972Z,2.67
2023-05-19T08:54:18.695Z,2.33
2023-05-19T08:56:45.746Z,2.97
2023-05-19T08:59:14.612Z,2.85
2023-05-19T09:01:48.601Z,3.08
2023-05-19T09:04:17.074Z,2.67
2023-05-19T09:06:45.265Z,2.88
2023-05-19T09:09:13.616Z,2.40
2023-05-19T09:11:40.214Z,3.13
2023-05-19T09:14:09.447Z,2.90
2023-05-19T09:16:36.384Z,2.85
2023-05-19T09:19:03.303Z,3.33
2023-05-19T09:21:33.662Z,2.85
2023-05-19T09:24:08.404Z,3.28
2023-05-19T09:26:42.737Z,2.80
2023-05-19T09:29:13.940Z,2.60
2023-05-19T09:31:50.635Z,3.10
2023-05-19T09:34:18.462Z,2.97
2023-05-19T09:36:46.933Z,2.70
2023-05-19T09:39:14.932Z,2.63
2023-05-19T09:41:42.299Z,3.05
2023-05-19T09:44:23.340Z,2.45
2023-05-19T09:46:50.944Z,2.47
2023-05-19T09:49:25.397Z,2.90
2023-05-19T09:51:58.864Z,3.00
2023-05-19T09:54:27.570Z,3.22
2023-05-19T09:57:01.013Z,3.15
2023-05-19T09:59:32.034Z,2.60
2023-05-19T10:02:01.040Z,2.60
2023-05-19T10:04:29.780Z,2.60
2023-05-19T10:07:01.184Z,2.72
2023-05-19T10:09:29.732Z,3.25
2023-05-19T10:12:01.858Z,3.10
2023-05-19T10:14:29.762Z,3.28
2023-05-19T10:16:59.855Z,3.25
2023-05-19T10:19:28.296Z,2.92
2023-05-19T10:21:56.314Z,2.70
2023-05-19T10:24:26.600Z,3.20
2023-05-19T10:27:03.607Z,3.17
2023-05-19T10:29:35.657Z,2.75
2023-05-19T10:32:10.614Z,2.70
2023-05-19T10:35:02.992Z,2.72
2023-05-19T10:37:53.775Z,2.75
2023-05-19T10:41:10.426Z,2.70
2023-05-19T10:44:10.266Z,3.33
2023-05-19T10:46:37.865Z,3.30
2023-05-19T10:49:04.562Z,2.92
2023-05-19T10:51:32.325Z,3.63
2023-05-19T10:54:10.448Z,3.13
2023-05-19T10:56:42.439Z,3.28
2023-05-19T10:59:35.656Z,3.20
2023-05-19T11:02:08.919Z,3.17
2023-05-19T11:04:53.641Z,3.15
2023-05-19T11:07:22.457Z,3.13
2023-05-19T11:09:53.279Z,2.95
2023-05-19T11:12:25.044Z,3.40
2023-05-19T11:14:55.952Z,3.03
2023-05-19T11:17:27.483Z,3.40
2023-05-19T11:19:55.934Z,2.60
2023-05-19T11:22:27.249Z,2.88
2023-05-19T11:24:59.909Z,3.33
2023-05-19T11:27:31.108Z,3.03
2023-05-19T11:29:59.636Z,3.28
2023-05-19T11:32:31.175Z,3.60
2023-05-19T11:34:58.259Z,2.80
2023-05-19T11:37:25.372Z,3.53
2023-05-19T11:39:53.065Z,3.47
2023-05-19T11:42:23.024Z,2.92
2023-05-19T11:44:55.872Z,2.83
2023-05-19T11:47:22.570Z,2.70
2023-05-19T11:49:57.758Z,3.40
2023-05-19T11:52:26.005Z,2.88
2023-05-19T11:54:52.716Z,3.20
2023-05-19T11:57:22.646Z,2.90
2023-05-19T11:59:53.337Z,3.08
2023-05-19T12:02:27.702Z,2.90
2023-05-19T12:04:55.105Z,3.15
2023-05-19T12:07:26.065Z,3.72
2023-05-19T12:09:53.420Z,3.17
2023-05-19T12:12:21.359Z,3.50
2023-05-19T12:14:50.176Z,3.35
2023-05-19T12:17:21.508Z,3.25
2023-05-19T12:19:49.254Z,3.47
2023-05-19T12:22:17.313Z,3.22
2023-05-19T12:24:45.209Z,3.63
2023-05-19T12:27:13.737Z,3.60
2023-05-19T12:29:40.680Z,3.85
2023-05-19T12:32:08.321Z,3.20
2023-05-19T12:34:38.994Z,3.40
2023-05-19T12:37:06.470Z,3.85
2023-05-19T12:39:34.013Z,3.70
2023-05-19T12:42:07.939Z,3.40
2023-05-19T12:44:54.831Z,3.55
2023-05-19T12:47:22.371Z,3.45
2023-05-19T12:49:55.972Z,3.33
2023-05-19T12:52:23.702Z,2.93
2023-05-19T12:54:52.518Z,2.70
2023-05-19T12:57:21.120Z,3.17
2023-05-19T12:59:49.393Z,3.30
2023-05-19T13:02:16.576Z,3.30
2023-05-19T13:04:43.339Z,3.65
2023-05-19T13:07:09.968Z,3.30
2023-05-19T13:09:36.650Z,3.17
2023-05-19T13:12:04.788Z,3.40
2023-05-19T13:14:31.450Z,3.15
2023-05-19T13:16:58.080Z,3.80
2023-05-19T13:19:26.026Z,3.42
2023-05-19T13:21:53.100Z,3.15
2023-05-19T13:24:22.007Z,3.42
2023-05-19T13:26:48.927Z,3.88
2023-05-19T13:29:15.609Z,3.08
2023-05-19T13:31:42.414Z,3.85
2023-05-19T13:34:09.209Z,3.30
2023-05-19T13:36:36.641Z,3.75
2023-05-19T13:39:03.604Z,2.75
2023-05-19T13:41:30.346Z,2.83
2023-05-19T13:43:59.235Z,2.92
2023-05-19T13:46:36.723Z,2.45
2023-05-19T13:49:13.063Z,2.63
2023-05-19T13:51:45.026Z,2.50
2023-05-19T13:54:11.851Z,3.05
2023-05-19T13:56:38.771Z,2.40
2023-05-19T13:59:05.402Z,2.30
2023-05-19T14:01:35.742Z,2.20
2023-05-19T14:04:02.791Z,2.00
2023-05-19T14:06:29.622Z,2.15
2023-05-19T14:08:59.199Z,2.30
2023-05-19T14:11:26.330Z,2.28
2023-05-19T14:13:53.271Z,1.67
2023-05-19T14:16:23.219Z,2.10
2023-05-19T14:18:50.014Z,2.15
2023-05-19T14:21:16.669Z,2.08
2023-05-19T14:23:48.627Z,2.35
2023-05-19T14:26:16.065Z,2.38
2023-05-19T14:28:42.774Z,2.10
2023-05-19T14:31:12.877Z,2.05
2023-05-19T14:33:40.810Z,2.03
2023-05-19T14:36:08.474Z,2.25
2023-05-19T14:38:35.429Z,3.05
2023-05-19T14:41:02.367Z,3.33
2023-05-19T14:43:29.115Z,2.70
2023-05-19T14:45:56.849Z,3.80
2023-05-19T14:48:23.546Z,2.60
2023-05-19T14:50:50.370Z,2.25
2023-05-19T14:53:17.084Z,2.40
2023-05-19T14:55:46.494Z,2.25
2023-05-19T14:58:27.686Z,2.60
2023-05-19T15:00:58.072Z,2.50
2023-05-19T15:03:25.072Z,2.40
2023-05-19T15:05:51.871Z,2.20
2023-05-19T15:08:18.582Z,2.00
2023-05-19T15:10:49.364Z,2.05
2023-05-19T15:13:17.156Z,2.70
2023-05-19T15:15:43.797Z,2.00
2023-05-19T15:18:11.510Z,1.98
2023-05-19T15:20:38.138Z,2.10
2023-05-19T15:23:04.796Z,2.33
2023-05-19T15:25:31.528Z,2.38
2023-05-19T15:27:58.194Z,2.47
2023-05-19T15:30:25.944Z,2.92
2023-05-19T15:32:52.565Z,2.28
2023-05-19T15:35:19.264Z,2.45
2023-05-19T15:37:45.912Z,2.10
2023-05-19T15:40:12.936Z,7.00
2023-05-19T15:42:39.554Z,4.55
2023-05-19T15:45:08.208Z,2.95
2023-05-19T15:47:34.946Z,2.88
2023-05-19T15:50:01.612Z,2.65
2023-05-19T15:52:29.275Z,2.50
2023-05-19T15:54:59.059Z,2.13
2023-05-19T15:57:25.963Z,2.80
2023-05-19T15:59:52.642Z,3.10
2023-05-19T16:02:19.658Z,2.50
2023-05-19T16:04:46.446Z,2.90
2023-05-19T16:07:13.094Z,2.47
2023-05-19T16:09:39.741Z,1.90
2023-05-19T16:12:06.793Z,2.30
2023-05-19T16:14:36.512Z,2.22
2023-05-19T16:17:07.598Z,2.42
2023-05-19T16:19:34.369Z,2.28
2023-05-19T16:22:01.098Z,2.05
2023-05-19T16:24:28.459Z,2.20
2023-05-19T16:26:55.593Z,3.20
2023-05-19T16:29:22.239Z,2.38
2023-05-19T16:31:48.849Z,2.30
2023-05-19T16:34:15.653Z,2.20
2023-05-19T16:36:42.342Z,2.22
2023-05-19T16:39:09.037Z,2.20
2023-05-19T16:41:35.871Z,2.33
2023-05-19T16:44:02.583Z,2.40
2023-05-19T16:46:32.437Z,2.35
2023-05-19T16:48:59.069Z,2.80
2023-05-19T16:51:25.825Z,2.60
2023-05-19T16:53:52.466Z,3.58
2023-05-19T16:56:19.248Z,3.95
2023-05-19T16:58:46.465Z,4.18
2023-05-19T17:01:13.145Z,3.33
2023-05-19T17:03:39.845Z,2.97
2023-05-19T17:06:06.608Z,3.17
2023-05-19T17:08:33.223Z,2.83
2023-05-19T17:10:59.903Z,3.05
2023-05-19T17:13:28.354Z,2.80
2023-05-19T17:15:55.019Z,2.60
2023-05-19T17:18:21.706Z,2.67
2023-05-19T17:20:48.439Z,2.53
2023-05-19T17:23:15.098Z,2.47
2023-05-19T17:25:41.959Z,2.60
2023-05-19T17:28:08.741Z,2.50
2023-05-19T17:30:35.802Z,2.67
2023-05-19T17:33:02.537Z,3.10
2023-05-19T17:35:29.254Z,2.97
2023-05-19T17:37:56.034Z,2.92
2023-05-19T17:40:22.651Z,3.10
2023-05-19T17:42:49.337Z,3.05
2023-05-19T17:45:16.142Z,2.67
2023-05-19T17:47:42.871Z,2.97
2023-05-19T17:50:09.937Z,3.30
2023-05-19T17:52:38.411Z,2.95
2023-05-19T17:55:05.886Z,3.10
2023-05-19T17:57:34.133Z,2.83
2023-05-19T18:00:01.366Z,3.08
2023-05-19T18:02:28.180Z,3.13
2023-05-19T18:04:55.172Z,2.95
2023-05-19T18:07:23.453Z,4.28
2023-05-19T18:09:51.860Z,3.35
2023-05-19T18:12:18.526Z,2.97
2023-05-19T18:14:48.226Z,3.40
2023-05-19T18:17:14.851Z,3.58
2023-05-19T18:19:44.445Z,3.63
2023-05-19T18:22:12.986Z,3.42
2023-05-19T18:24:39.650Z,3.28
2023-05-19T18:27:06.301Z,2.97
2023-05-19T18:29:33.996Z,3.50
2023-05-19T18:32:01.394Z,3.90
2023-05-19T18:34:30.183Z,3.50
2023-05-19T18:36:56.785Z,3.67
2023-05-19T18:39:23.495Z,4.00
2023-05-19T18:41:50.845Z,3.88
2023-05-19T18:44:17.546Z,4.00
2023-05-19T18:46:47.256Z,3.83
2023-05-19T18:49:13.968Z,3.58
2023-05-19T18:51:42.087Z,4.03
2023-05-19T18:54:08.816Z,3.75
2023-05-19T18:56:35.712Z,4.50
2023-05-19T18:59:02.450Z,3.80
2023-05-19T19:01:29.192Z,4.30
2023-05-19T19:03:55.935Z,4.47
2023-05-19T19:06:23.442Z,4.72
2023-05-19T19:08:50.323Z,4.55
2023-05-19T19:11:17.015Z,4.47
2023-05-19T19:13:43.856Z,4.28
2023-05-19T19:16:10.950Z,4.40
2023-05-19T19:18:37.698Z,4.50
2023-05-19T19:21:06.048Z,4.53
2023-05-19T19:23:33.220Z,4.45
2023-05-19T19:26:00.296Z,3.78
2023-05-19T19:28:27.041Z,3.58
2023-05-19T19:30:53.714Z,3.90
2023-05-19T19:33:20.574Z,3.95
2023-05-19T19:35:47.240Z,4.43
2023-05-19T19:38:14.161Z,4.45
2023-05-19T19:40:40.878Z,4.72
2023-05-19T19:43:07.558Z,4.25
2023-05-19T19:45:34.901Z,5.00
2023-05-19T19:48:01.934Z,4.35
2023-05-19T19:50:28.568Z,5.07
2023-05-19T19:52:55.170Z,4.50
2023-05-19T19:55:21.914Z,5.28
2023-05-19T19:57:49.572Z,5.07
2023-05-19T20:00:16.666Z,5.63
2023-05-19T20:03:02.859Z,6.13
2023-05-19T20:05:30.043Z,5.43
2023-05-19T20:07:56.736Z,4.75
2023-05-19T20:10:23.378Z,5.43
2023-05-19T20:12:50.700Z,5.18
2023-05-19T20:15:17.585Z,4.85
2023-05-19T20:17:44.334Z,5.70
2023-05-19T20:20:12.322Z,5.13
2023-05-19T20:22:41.158Z,5.63
2023-05-19T20:25:08.189Z,5.35
2023-05-19T20:27:37.715Z,6.30
2023-05-19T20:30:04.919Z,5.78
2023-05-19T20:32:31.664Z,5.70
2023-05-19T20:34:58.501Z,6.10
2023-05-19T20:37:25.135Z,6.05
2023-05-19T20:39:51.881Z,5.90
2023-05-19T20:42:18.482Z,5.90
2023-05-19T20:44:45.144Z,6.20
2023-05-19T20:47:11.859Z,6.57
2023-05-19T20:49:38.567Z,7.28
2023-05-19T20:52:05.276Z,6.93
2023-05-19T20:54:31.928Z,8.40
2023-05-19T20:56:58.557Z,7.45
2023-05-19T20:59:25.536Z,7.53
2023-05-19T21:01:52.120Z,7.72
2023-05-19T21:04:18.970Z,8.32
2023-05-19T21:06:45.887Z,7.90
2023-05-19T21:09:12.588Z,8.25
2023-05-19T21:11:39.191Z,8.45
2023-05-19T21:14:08.095Z,8.02
2023-05-19T21:16:38.838Z,9.02
2023-05-19T21:19:06.938Z,8.32
2023-05-19T21:21:34.710Z,8.10
2023-05-19T21:24:01.977Z,8.57
2023-05-19T21:26:28.585Z,7.90
2023-05-19T21:28:55.257Z,8.40
2023-05-19T21:31:21.938Z,8.65
2023-05-19T21:33:48.721Z,7.38
2023-05-19T21:36:16.546Z,7.85
2023-05-19T21:38:43.176Z,8.32
2023-05-19T21:41:09.864Z,7.78
2023-05-19T21:43:36.498Z,8.25
2023-05-19T21:46:03.262Z,8.07
2023-05-19T21:48:29.876Z,8.27
2023-05-19T21:50:57.281Z,9.02
2023-05-19T21:53:24.760Z,9.18
2023-05-19T21:55:51.629Z,8.52
2023-05-19T21:58:18.569Z,8.88
2023-05-19T22:00:52.686Z,8.90
2023-05-19T22:03:19.742Z,9.00
2023-05-19T22:05:50.843Z,9.15
2023-05-19T22:08:18.509Z,8.52
2023-05-19T22:10:45.420Z,8.95
2023-05-19T22:13:12.707Z,8.70
2023-05-19T22:15:39.623Z,8.85
2023-05-19T22:18:07.016Z,9.13
2023-05-19T22:20:34.283Z,8.73
2023-05-19T22:23:04.077Z,8.45
2023-05-19T22:25:31.236Z,8.45
2023-05-19T22:27:57.896Z,8.98
2023-05-19T22:30:24.718Z,8.80
2023-05-19T22:32:51.395Z,8.25
2023-05-19T22:35:18.916Z,9.95
2023-05-19T22:37:45.504Z,8.90
2023-05-19T22:40:12.342Z,8.93
2023-05-19T22:42:39.005Z,9.38
2023-05-19T22:45:06.410Z,8.70
2023-05-19T22:47:33.084Z,9.15
2023-05-19T22:49:59.740Z,8.55
2023-05-19T22:52:26.395Z,8.85
2023-05-19T22:54:53.099Z,8.77
2023-05-19T22:57:19.722Z,8.93
2023-05-19T22:59:48.226Z,8.95
2023-05-19T23:02:14.862Z,8.30
2023-05-19T23:04:41.553Z,9.02
2023-05-19T23:07:08.212Z,8.85
2023-05-19T23:09:34.933Z,9.38
2023-05-19T23:12:01.585Z,9.52
2023-05-19T23:14:28.491Z,8.73
2023-05-19T23:16:55.208Z,9.63
2023-05-19T23:19:22.335Z,9.85
2023-05-19T23:21:49.330Z,9.27
2023-05-19T23:24:16.305Z,9.85
2023-05-19T23:26:45.965Z,10.13
2023-05-19T23:29:13.666Z,9.60
2023-05-19T23:31:41.147Z,10.00
2023-05-19T23:34:08.928Z,9.07
2023-05-19T23:36:36.517Z,9.98
2023-05-19T23:39:03.410Z,9.65
2023-05-19T23:41:35.984Z,9.77
2023-05-19T23:44:02.645Z,9.48
2023-05-19T23:46:29.496Z,9.80
2023-05-19T23:48:56.284Z,9.30
2023-05-19T23:51:22.955Z,8.57
2023-05-19T23:53:49.624Z,9.93
2023-05-19T23:56:18.941Z,9.13
2023-05-19T23:58:45.766Z,9.90
